Time;durP1;ratioP1;P1;durP2;ratioP2;P2;SDS_P1;SDS_P2;PMS_P1;PMS_P2;Temp;Humidity;BMP_temperature;BMP_pressure;BME280_temperature;BME280_humidity;BME280_pressure;Samples;Min_cycle;Max_cycle;Signal;HPM_P1;HPM_P2
2022/08/07 00:00:37;;;;;;;2.85;1.00;;;;;;;15.76;100.00;99764.75;5175186;27;20438;-50
2022/08/07 00:03:03;;;;;;;1.95;1.20;;;;;;;15.73;100.00;99761.97;5175293;27;20099;-49
2022/08/07 00:05:30;;;;;;;4.50;1.38;;;;;;;15.74;100.00;99758.00;5175384;27;20049;-53
2022/08/07 00:07:56;;;;;;;1.90;1.55;;;;;;;15.69;100.00;99747.28;5175191;27;20050;-52
2022/08/07 00:10:22;;;;;;;1.55;1.27;;;;;;;15.71;100.00;99756.00;5175290;27;20085;-53
2022/08/07 00:12:49;;;;;;;7.97;1.55;;;;;;;15.70;100.00;99759.97;5175019;27;20054;-53
2022/08/07 00:15:15;;;;;;;4.30;1.40;;;;;;;15.59;100.00;99762.59;5175168;27;20564;-53
2022/08/07 00:17:42;;;;;;;1.35;1.25;;;;;;;15.80;100.00;99763.97;5174938;27;20050;-50
2022/08/07 00:20:09;;;;;;;2.25;1.20;;;;;;;15.49;100.00;99761.38;5174926;27;20048;-50
2022/08/07 00:22:36;;;;;;;1.77;1.15;;;;;;;15.64;100.00;99744.88;5174844;27;20054;-53
2022/08/07 00:25:04;;;;;;;5.40;1.27;;;;;;;15.71;100.00;99733.91;5174863;27;20475;-52
2022/08/07 00:27:30;;;;;;;3.17;1.38;;;;;;;15.62;100.00;99731.44;5174803;27;20042;-52
2022/08/07 00:29:56;;;;;;;5.53;1.70;;;;;;;15.51;100.00;99733.34;5174653;27;20054;-53
2022/08/07 00:32:23;;;;;;;2.08;1.40;;;;;;;15.42;100.00;99730.91;5175133;27;20077;-53
2022/08/07 00:34:49;;;;;;;5.85;1.20;;;;;;;15.71;100.00;99717.31;5174661;27;20051;-52
2022/08/07 00:37:15;;;;;;;1.20;1.10;;;;;;;15.57;100.00;99726.28;5174215;27;20046;-53
2022/08/07 00:39:42;;;;;;;3.90;1.25;;;;;;;15.87;100.00;99737.16;5174623;27;20050;-52
2022/08/07 00:42:09;;;;;;;2.13;1.40;;;;;;;15.63;100.00;99751.59;5174672;27;20489;-53
2022/08/07 00:44:36;;;;;;;4.00;1.30;;;;;;;15.91;100.00;99753.75;5174809;27;20052;-52
2022/08/07 00:47:03;;;;;;;2.22;1.40;;;;;;;15.72;100.00;99760.34;5174287;27;20161;-50
2022/08/07 00:49:30;;;;;;;6.93;1.45;;;;;;;15.54;100.00;99760.22;5174429;27;20057;-49
2022/08/07 00:51:57;;;;;;;4.35;1.25;;;;;;;15.80;100.00;99748.19;5174375;27;20072;-49
2022/08/07 00:54:23;;;;;;;4.70;1.42;;;;;;;15.65;100.00;99754.75;5174366;27;20174;-53
2022/08/07 00:56:51;;;;;;;1.65;1.05;;;;;;;15.72;100.00;99743.75;5174434;27;20078;-51
2022/08/07 00:59:17;;;;;;;3.40;1.17;;;;;;;15.36;100.00;99729.69;5174492;27;20055;-51
2022/08/07 01:01:44;;;;;;;3.60;1.30;;;;;;;15.41;100.00;99706.44;5174222;27;20076;-50
2022/08/07 01:04:10;;;;;;;6.00;1.40;;;;;;;15.69;100.00;99712.19;5174490;27;20509;-49
2022/08/07 01:06:37;;;;;;;3.72;1.30;;;;;;;15.60;100.00;99721.97;5174121;27;20527;-50
2022/08/07 01:09:03;;;;;;;6.45;1.60;;;;;;;15.77;100.00;99730.38;5174455;27;20062;-51
2022/08/07 01:11:30;;;;;;;4.32;1.83;;;;;;;15.76;100.00;99741.81;5174138;27;20062;-49
2022/08/07 01:13:59;;;;;;;3.33;2.03;;;;;;;15.52;100.00;99749.53;5174211;27;20622;-49
2022/08/07 01:16:25;;;;;;;4.03;1.60;;;;;;;15.50;100.00;99742.81;5173938;27;20114;-49
2022/08/07 01:18:52;;;;;;;6.00;1.88;;;;;;;15.62;100.00;99748.00;5174045;27;20497;-49
2022/08/07 01:21:23;;;;;;;4.22;1.38;;;;;;;15.53;100.00;99753.09;5174150;27;20098;-49
2022/08/07 01:23:51;;;;;;;2.10;1.30;;;;;;;15.52;100.00;99734.91;5174070;27;20073;-49
2022/08/07 01:26:19;;;;;;;9.38;2.15;;;;;;;15.37;100.00;99730.47;5174046;27;20425;-49
2022/08/07 01:28:47;;;;;;;3.13;1.40;;;;;;;15.42;100.00;99721.81;5173773;27;20102;-49
2022/08/07 01:31:14;;;;;;;5.22;1.63;;;;;;;15.69;100.00;99717.72;5174128;27;20100;-49
2022/08/07 01:33:42;;;;;;;9.38;1.70;;;;;;;15.51;100.00;99719.53;5173650;27;20092;-49
2022/08/07 01:36:10;;;;;;;4.93;1.92;;;;;;;15.46;100.00;99698.59;5173977;27;20042;-52
2022/08/07 01:38:38;;;;;;;2.35;1.42;;;;;;;15.40;100.00;99697.34;5173576;27;20579;-50
2022/08/07 01:41:06;;;;;;;3.55;1.90;;;;;;;15.63;100.00;99696.31;5173672;27;20046;-49
2022/08/07 01:43:33;;;;;;;3.55;1.83;;;;;;;15.59;100.00;99712.06;5173607;27;20047;-49
2022/08/07 01:45:59;;;;;;;3.58;1.38;;;;;;;15.54;100.00;99727.84;5173891;27;20480;-51
2022/08/07 01:48:26;;;;;;;1.88;1.60;;;;;;;15.62;100.00;99741.69;5172499;27;20056;-50
2022/08/07 01:50:56;;;;;;;6.82;1.50;;;;;;;15.70;100.00;99755.22;5173505;27;20102;-52
2022/08/07 01:53:24;;;;;;;5.47;1.20;;;;;;;15.64;100.00;99759.50;5173543;27;20118;-53
2022/08/07 01:55:56;;;;;;;2.45;1.40;;;;;;;15.39;100.00;99764.81;5173463;27;20102;-49
2022/08/07 01:58:26;;;;;;;4.15;1.55;;;;;;;15.71;100.00;99783.66;5173700;27;20489;-49
2022/08/07 02:00:58;;;;;;;3.72;1.60;;;;;;;15.88;100.00;99796.78;5173260;27;20548;-49
2022/08/07 02:03:27;;;;;;;1.42;1.20;;;;;;;15.69;100.00;99808.94;5173094;27;20137;-51
2022/08/07 02:05:58;;;;;;;5.18;1.50;;;;;;;15.49;100.00;99819.41;5173440;27;20046;-51
2022/08/07 02:08:27;;;;;;;3.35;1.17;;;;;;;15.50;100.00;99820.97;5173257;27;20505;-50
2022/08/07 02:10:58;;;;;;;4.45;1.50;;;;;;;15.47;100.00;99832.00;5173223;27;20573;-50
2022/08/07 02:13:27;;;;;;;1.55;1.40;;;;;;;15.75;100.00;99842.50;5173561;27;20058;-49
2022/08/07 02:15:56;;;;;;;1.35;1.23;;;;;;;15.72;100.00;99865.38;5173020;27;20137;-48
2022/08/07 02:18:25;;;;;;;9.00;1.38;;;;;;;15.51;100.00;99864.00;5173035;27;20047;-49
2022/08/07 02:20:54;;;;;;;5.00;1.40;;;;;;;15.38;100.00;99859.94;5172860;27;20237;-48
2022/08/07 02:23:22;;;;;;;3.20;1.35;;;;;;;15.42;100.00;99854.44;5172961;27;20052;-49
2022/08/07 02:25:49;;;;;;;5.32;1.20;;;;;;;15.43;100.00;99878.94;5173035;27;20050;-49
2022/08/07 02:28:18;;;;;;;6.10;1.20;;;;;;;15.11;100.00;99886.09;5172916;27;20462;-50
2022/08/07 02:30:45;;;;;;;3.35;1.17;;;;;;;15.31;100.00;99887.50;5173000;27;20090;-50
2022/08/07 02:33:14;;;;;;;2.85;1.40;;;;;;;15.42;100.00;99882.84;5172785;27;20075;-49
2022/08/07 02:35:42;;;;;;;3.03;1.27;;;;;;;15.20;100.00;99886.59;5172662;27;20062;-53
2022/08/07 02:38:10;;;;;;;3.33;1.30;;;;;;;15.00;100.00;99892.28;5172783;27;20508;-49
2022/08/07 02:40:37;;;;;;;3.05;1.20;;;;;;;14.79;100.00;99894.78;5172587;27;20046;-49
2022/08/07 02:43:05;;;;;;;3.63;1.30;;;;;;;15.13;100.00;99892.84;5172889;27;20068;-52
2022/08/07 02:45:35;;;;;;;5.30;1.10;;;;;;;14.98;100.00;99905.66;5172480;27;20042;-53
2022/08/07 02:48:01;;;;;;;1.00;0.95;;;;;;;15.19;100.00;99887.75;5172565;27;20067;-53
2022/08/07 02:50:28;;;;;;;2.55;1.30;;;;;;;15.13;100.00;99898.38;5172685;27;20050;-52
2022/08/07 02:53:03;;;;;;;6.85;1.35;;;;;;;15.00;100.00;99903.34;5172849;27;20489;-49
2022/08/07 02:55:31;;;;;;;7.72;1.50;;;;;;;14.90;100.00;99905.97;5172721;27;20552;-49
2022/08/07 02:58:02;;;;;;;5.93;1.30;;;;;;;14.89;100.00;99887.81;5172534;27;20113;-49
2022/08/07 03:00:29;;;;;;;6.13;1.60;;;;;;;14.99;100.00;99887.13;5172660;27;20409;-49
2022/08/07 03:02:57;;;;;;;4.55;1.20;;;;;;;14.70;100.00;99884.03;5172500;27;20102;-49
2022/08/07 03:05:24;;;;;;;5.03;1.38;;;;;;;14.86;100.00;99867.28;5172349;27;20046;-49
2022/08/07 03:07:51;;;;;;;2.75;1.33;;;;;;;14.90;100.00;99884.69;5172327;27;20460;-52
2022/08/07 03:10:17;;;;;;;5.45;1.90;;;;;;;14.82;100.00;99894.03;5172412;27;20043;-52
2022/08/07 03:12:45;;;;;;;6.85;1.90;;;;;;;14.75;100.00;99897.50;5172302;27;20157;-52
2022/08/07 03:15:13;;;;;;;6.03;1.40;;;;;;;14.86;100.00;99905.94;5172006;27;20046;-49
2022/08/07 03:17:40;;;;;;;4.20;1.55;;;;;;;14.68;100.00;99904.91;5172441;27;20511;-49
2022/08/07 03:20:08;;;;;;;1.95;1.20;;;;;;;14.99;100.00;99906.47;5172036;27;20500;-52
2022/08/07 03:22:37;;;;;;;3.00;1.20;;;;;;;14.84;100.00;99908.28;5172438;27;20047;-50
2022/08/07 03:25:04;;;;;;;1.70;1.30;;;;;;;14.75;100.00;99918.78;5172064;27;20057;-52
2022/08/07 03:27:30;;;;;;;9.63;1.35;;;;;;;14.70;100.00;99911.66;5172404;27;20049;-52
2022/08/07 03:29:58;;;;;;;2.83;1.13;;;;;;;14.70;100.00;99927.41;5171957;27;20071;-50
2022/08/07 03:32:28;;;;;;;4.82;1.40;;;;;;;14.73;100.00;99941.25;5172204;27;20047;-49
2022/08/07 03:34:58;;;;;;;4.43;1.38;;;;;;;14.63;100.00;99944.66;5172049;27;20042;-49
2022/08/07 03:37:26;;;;;;;4.95;1.15;;;;;;;14.67;100.00;99923.44;5172123;27;20057;-48
2022/08/07 03:39:53;;;;;;;2.38;1.35;;;;;;;14.39;100.00;99923.78;5172153;27;20050;-48
2022/08/07 03:42:20;;;;;;;1.30;1.20;;;;;;;14.68;100.00;99913.19;5171773;27;20508;-50
2022/08/07 03:44:47;;;;;;;4.95;1.30;;;;;;;14.64;100.00;99921.41;5171912;27;20069;-48
2022/08/07 03:47:14;;;;;;;7.03;1.17;;;;;;;14.52;100.00;99911.38;5172205;27;20076;-48
2022/08/07 03:49:41;;;;;;;6.72;1.40;;;;;;;14.72;100.00;99916.78;5171946;27;20046;-49
2022/08/07 03:52:09;;;;;;;1.50;1.00;;;;;;;14.77;100.00;99916.47;5172038;27;20050;-52
2022/08/07 03:54:36;;;;;;;7.82;1.77;;;;;;;15.12;100.00;99927.13;5171805;27;20048;-49
2022/08/07 03:57:04;;;;;;;2.42;1.10;;;;;;;15.29;100.00;99967.19;5171691;27;20043;-50
2022/08/07 03:59:31;;;;;;;7.47;1.50;;;;;;;15.09;100.00;99996.13;5171642;27;20049;-49
2022/08/07 04:01:58;;;;;;;3.30;1.30;;;;;;;15.10;100.00;100000.50;5171748;27;20050;-49
2022/08/07 04:04:25;;;;;;;2.67;1.30;;;;;;;15.27;100.00;100011.75;5171729;27;20105;-48
2022/08/07 04:06:52;;;;;;;3.22;1.30;;;;;;;15.29;100.00;100019.66;5171652;27;20125;-49
2022/08/07 04:09:19;;;;;;;6.85;1.13;;;;;;;15.14;100.00;100021.47;5171518;27;20050;-50
2022/08/07 04:11:48;;;;;;;3.30;1.50;;;;;;;15.56;100.00;100025.13;5172109;27;20186;-48
2022/08/07 04:14:15;;;;;;;1.67;1.25;;;;;;;16.30;100.00;100038.16;5174913;27;20046;-50
2022/08/07 04:16:41;;;;;;;4.53;1.30;;;;;;;17.36;100.00;100013.13;5174952;27;20141;-49
2022/08/07 04:19:08;;;;;;;2.13;1.10;;;;;;;17.05;100.00;99914.81;5175123;27;20058;-51
2022/08/07 04:21:34;;;;;;;4.50;1.10;;;;;;;16.77;100.00;99848.28;5175132;27;20091;-48
2022/08/07 04:24:02;;;;;;;5.07;1.23;;;;;;;17.13;100.00;99822.25;5174817;27;20046;-48
2022/08/07 04:26:28;;;;;;;4.65;1.10;;;;;;;16.37;100.00;99842.53;5175032;27;20050;-48
2022/08/07 04:28:55;;;;;;;2.40;1.10;;;;;;;16.93;100.00;99876.41;5174809;27;20046;-49
2022/08/07 04:31:23;;;;;;;3.45;0.88;;;;;;;17.17;100.00;99823.03;5174961;27;20077;-50
2022/08/07 04:33:49;;;;;;;4.57;1.20;;;;;;;17.27;100.00;99804.84;5174851;27;20141;-49
2022/08/07 04:36:16;;;;;;;6.45;1.85;;;;;;;16.92;100.00;99792.50;5174729;27;20125;-48
2022/08/07 04:38:42;;;;;;;2.72;1.55;;;;;;;16.60;100.00;99789.66;5174746;27;20473;-48
2022/08/07 04:41:09;;;;;;;6.70;1.30;;;;;;;16.78;100.00;99806.34;5174342;27;20046;-49
2022/08/07 04:43:37;;;;;;;6.40;1.35;;;;;;;17.02;100.00;99824.19;5174809;27;20069;-52
2022/08/07 04:46:09;;;;;;;3.30;1.25;;;;;;;16.99;100.00;99793.72;5174670;27;20046;-48
2022/08/07 04:48:44;;;;;;;4.03;1.13;;;;;;;16.97;100.00;99799.66;5174774;27;20047;-48
2022/08/07 04:51:20;;;;;;;7.00;1.50;;;;;;;17.04;100.00;99818.28;5174495;27;20046;-48
2022/08/07 04:53:56;;;;;;;3.95;1.23;;;;;;;16.62;100.00;99780.94;5174284;27;20046;-48
2022/08/07 04:56:27;;;;;;;3.75;1.10;;;;;;;16.96;100.00;99755.72;5174475;27;20094;-48
2022/08/07 04:59:01;;;;;;;3.20;1.83;;;;;;;17.07;100.00;99796.13;5174430;27;20050;-49
2022/08/07 05:01:38;;;;;;;4.43;1.35;;;;;;;16.82;100.00;99762.81;5174165;27;20046;-49
2022/08/07 05:04:09;;;;;;;8.85;1.10;;;;;;;17.29;100.00;99760.09;5174286;27;20057;-50
2022/08/07 05:06:44;;;;;;;5.32;1.23;;;;;;;17.77;100.00;99605.22;5174156;27;20050;-48
2022/08/07 05:09:22;;;;;;;2.17;1.10;;;;;;;19.13;100.00;99370.06;5174155;27;20512;-48
2022/08/07 05:11:51;;;;;;;5.60;1.27;;;;;;;19.65;100.00;98928.31;5174404;27;20054;-50
2022/08/07 05:14:24;;;;;;;4.63;1.58;;;;;;;20.43;100.00;98788.44;5174115;27;20052;-51
2022/08/07 05:16:56;;;;;;;2.92;0.95;;;;;;;21.08;100.00;98700.94;5174337;27;20187;-49
2022/08/07 05:19:25;;;;;;;1.65;1.25;;;;;;;21.64;100.00;98624.22;5174226;27;20088;-49
2022/08/07 05:21:55;;;;;;;3.88;1.48;;;;;;;21.34;100.00;98591.00;5173829;27;20513;-48
2022/08/07 05:24:23;;;;;;;3.08;1.10;;;;;;;21.84;100.00;98594.78;5172726;27;20069;-50
2022/08/07 05:26:54;;;;;;;5.47;1.27;;;;;;;21.95;100.00;98604.75;5173858;27;20053;-53
2022/08/07 05:29:23;;;;;;;4.93;1.40;;;;;;;22.26;100.00;98618.78;5174045;27;20046;-50
2022/08/07 05:31:50;;;;;;;3.35;1.17;;;;;;;22.02;100.00;98612.84;5173746;27;20050;-51
2022/08/07 05:34:19;;;;;;;3.38;1.45;;;;;;;22.39;100.00;98618.66;5174009;27;20046;-52
2022/08/07 05:36:49;;;;;;;6.72;1.30;;;;;;;22.53;100.00;98644.03;5174118;27;20352;-52
2022/08/07 05:39:17;;;;;;;3.25;1.33;;;;;;;23.14;100.00;98647.22;5174034;27;20051;-53
2022/08/07 05:41:46;;;;;;;1.20;0.90;;;;;;;23.22;100.00;98645.66;5173529;27;20130;-51
2022/08/07 05:44:13;;;;;;;2.85;0.98;;;;;;;23.28;100.00;98656.25;5173812;27;20050;-49
2022/08/07 05:46:41;;;;;;;4.85;1.23;;;;;;;23.90;100.00;98718.38;5173621;27;20257;-52
2022/08/07 05:49:10;;;;;;;3.03;1.52;;;;;;;24.54;100.00;98765.16;5173558;27;20057;-52
2022/08/07 05:51:37;;;;;;;3.50;1.25;;;;;;;24.13;100.00;98741.38;5173697;27;20054;-52
2022/08/07 05:54:04;;;;;;;5.47;1.30;;;;;;;24.40;100.00;98763.00;5173382;27;20095;-53
2022/08/07 05:56:33;;;;;;;5.60;1.55;;;;;;;23.91;100.00;98763.91;5173495;27;20056;-49
2022/08/07 05:59:01;;;;;;;2.88;1.08;;;;;;;23.65;100.00;98772.56;5173246;27;20042;-51
2022/08/07 06:01:29;;;;;;;6.20;1.20;;;;;;;24.01;100.00;98751.47;5173333;27;20161;-53
2022/08/07 06:03:57;;;;;;;1.90;1.00;;;;;;;23.92;100.00;98799.84;5173272;27;20050;-52
2022/08/07 06:06:23;;;;;;;4.72;1.20;;;;;;;24.56;100.00;98817.97;5173545;27;20090;-52
2022/08/07 06:08:54;;;;;;;4.72;1.13;;;;;;;24.34;100.00;98832.88;5173169;27;20511;-51
2022/08/07 06:11:20;;;;;;;2.28;1.13;;;;;;;24.80;100.00;98807.63;5173331;27;20054;-51
2022/08/07 06:13:47;;;;;;;6.63;1.35;;;;;;;24.35;100.00;98853.25;5173132;27;20050;-49
2022/08/07 06:16:15;;;;;;;4.00;1.20;;;;;;;24.21;100.00;98779.03;5173097;27;20061;-52
2022/08/07 06:18:43;;;;;;;3.22;1.00;;;;;;;24.65;100.00;98835.50;5172957;27;20046;-49
2022/08/07 06:21:10;;;;;;;4.72;1.02;;;;;;;24.67;100.00;98860.28;5172897;27;20107;-50
2022/08/07 06:23:37;;;;;;;3.03;1.10;;;;;;;24.81;100.00;98917.75;5172936;27;20046;-53
2022/08/07 06:26:05;;;;;;;4.88;1.10;;;;;;;25.05;100.00;98836.53;5173067;27;20058;-50
2022/08/07 06:28:32;;;;;;;1.85;0.75;;;;;;;25.40;100.00;98931.56;5173096;27;20079;-52
2022/08/07 06:30:58;;;;;;;4.75;1.10;;;;;;;25.75;100.00;98988.03;5172691;27;20098;-52
2022/08/07 06:33:25;;;;;;;4.15;1.10;;;;;;;25.70;100.00;98991.50;5172837;27;20501;-52
2022/08/07 06:35:51;;;;;;;9.93;1.50;;;;;;;24.40;100.00;99026.34;5172243;27;20425;-49
2022/08/07 06:38:17;;;;;;;3.40;1.00;;;;;;;24.72;100.00;98949.34;5173121;27;20134;-53
2022/08/07 06:40:49;;;;;;;3.20;1.00;;;;;;;25.18;100.00;98957.78;5172731;27;20053;-52
2022/08/07 06:43:18;;;;;;;3.30;1.00;;;;;;;23.55;100.00;98877.31;5173002;27;20046;-50
2022/08/07 06:45:44;;;;;;;2.97;0.80;;;;;;;25.27;100.00;98985.03;5172685;27;20046;-51
2022/08/07 06:48:10;;;;;;;2.35;0.82;;;;;;;25.33;100.00;98972.72;5172462;27;20462;-52
2022/08/07 06:50:40;;;;;;;3.60;1.10;;;;;;;25.78;100.00;99009.56;5172766;27;20165;-51
2022/08/07 06:53:08;;;;;;;4.30;0.90;;;;;;;26.02;100.00;99023.69;5172672;27;20082;-50
2022/08/07 06:55:35;;;;;;;4.28;1.40;;;;;;;25.32;100.00;98967.56;5172558;27;20463;-50
2022/08/07 06:58:05;;;;;;;3.63;0.95;;;;;;;24.80;100.00;99051.53;5172392;27;20098;-53
2022/08/07 07:00:35;;;;;;;5.93;1.20;;;;;;;25.54;100.00;99040.34;5172172;27;20046;-51
2022/08/07 07:03:03;;;;;;;3.72;1.10;;;;;;;25.03;100.00;99103.44;5172207;27;20050;-49
2022/08/07 07:05:30;;;;;;;2.47;0.85;;;;;;;25.47;100.00;99091.19;5172275;27;20058;-50
2022/08/07 07:07:56;;;;;;;2.65;1.25;;;;;;;24.49;100.00;99084.44;5172370;27;20058;-52
2022/08/07 07:10:28;;;;;;;2.97;0.80;;;;;;;25.77;100.00;99112.69;5172208;27;20056;-50
2022/08/07 07:12:59;;;;;;;2.45;0.70;;;;;;;26.22;100.00;99122.25;5172326;27;20061;-52
2022/08/07 07:15:29;;;;;;;5.22;1.10;;;;;;;25.44;100.00;99081.66;5172138;27;20046;-50
2022/08/07 07:18:03;;;;;;;3.33;0.98;;;;;;;26.07;100.00;99118.59;5172326;27;20046;-50
2022/08/07 07:20:36;;;;;;;1.92;1.00;;;;;;;25.81;100.00;99104.91;5172087;27;20086;-51
2022/08/07 07:23:04;;;;;;;5.57;1.00;;;;;;;26.31;100.00;99132.72;5172026;27;20505;-53
2022/08/07 07:25:31;;;;;;;2.67;0.70;;;;;;;26.36;100.00;99173.44;5171893;27;20136;-53
2022/08/07 07:28:01;;;;;;;4.43;0.90;;;;;;;26.82;100.00;99181.75;5171933;27;20111;-51
2022/08/07 07:30:31;;;;;;;1.88;0.80;;;;;;;26.79;100.00;99196.75;5172100;27;20062;-49
2022/08/07 07:33:00;;;;;;;2.80;1.20;;;;;;;26.01;100.00;99182.25;5172165;27;20146;-53
2022/08/07 07:35:28;;;;;;;3.00;1.00;;;;;;;26.33;100.00;99149.88;5172012;27;20489;-50
2022/08/07 07:37:55;;;;;;;7.85;1.02;;;;;;;25.75;100.00;99148.09;5171930;27;20501;-50
2022/08/07 07:40:22;;;;;;;2.70;0.98;;;;;;;25.71;100.00;99120.16;5171891;27;20095;-50
2022/08/07 07:42:53;;;;;;;5.13;1.00;;;;;;;26.41;100.00;99133.47;5171879;27;20046;-50
2022/08/07 07:45:23;;;;;;;3.53;1.10;;;;;;;26.75;100.00;99166.75;5172005;27;20054;-54
2022/08/07 07:47:52;;;;;;;4.20;0.90;;;;;;;27.17;100.00;99190.50;5174020;27;20085;-54
2022/08/07 07:50:21;;;;;;;3.00;0.80;;;;;;;27.28;100.00;99206.84;5175498;27;20048;-53
2022/08/07 07:52:48;;;;;;;3.47;0.98;;;;;;;27.50;100.00;99221.41;5175108;27;20046;-52
2022/08/07 07:55:18;;;;;;;2.80;1.00;;;;;;;26.35;100.00;99237.31;5175390;27;20061;-53
2022/08/07 07:57:48;;;;;;;2.63;0.80;;;;;;;27.36;100.00;99253.09;5175557;27;20053;-53
2022/08/07 08:00:16;;;;;;;2.60;0.85;;;;;;;26.51;100.00;99251.03;5175611;27;20053;-53
2022/08/07 08:02:46;;;;;;;2.15;0.82;;;;;;;26.40;100.00;99235.91;5175618;27;20498;-50
2022/08/07 08:05:14;;;;;;;2.85;1.30;;;;;;;27.81;100.00;99257.66;5175085;27;20046;-52
2022/08/07 08:07:43;;;;;;;3.13;1.00;;;;;;;27.88;100.00;99256.53;5175387;27;20042;-51
2022/08/07 08:10:12;;;;;;;4.53;1.25;;;;;;;26.50;100.00;99241.06;5175281;27;20077;-53
2022/08/07 08:12:39;;;;;;;4.20;1.20;;;;;;;26.34;100.00;99286.34;5175171;27;20057;-50
2022/08/07 08:15:06;;;;;;;5.57;1.25;;;;;;;26.02;100.00;99228.75;5174813;27;20432;-49
2022/08/07 08:17:34;;;;;;;1.90;0.90;;;;;;;27.11;100.00;99266.31;5174932;27;20050;-52
2022/08/07 08:20:03;;;;;;;1.98;0.70;;;;;;;26.05;100.00;99275.56;5174832;27;20046;-49
2022/08/07 08:28:05;;;;;;;3.08;0.80;;;;;;;25.64;100.00;99252.44;5174683;27;20053;-51
2022/08/07 08:30:33;;;;;;;2.72;0.90;;;;;;;25.88;100.00;99271.50;5175116;27;20042;-50
2022/08/07 08:33:02;;;;;;;2.90;0.88;;;;;;;26.08;100.00;99249.34;5174562;27;20527;-53
2022/08/07 08:35:30;;;;;;;1.70;0.88;;;;;;;27.58;100.00;99266.88;5174725;27;20219;-50
2022/08/07 08:37:59;;;;;;;2.63;0.95;;;;;;;27.36;100.00;99282.03;5174528;27;20099;-53
2022/08/07 08:40:30;;;;;;;4.47;0.98;;;;;;;27.56;100.00;99280.69;5174644;27;20458;-50
2022/08/07 08:43:02;;;;;;;2.65;1.00;;;;;;;26.91;100.00;99302.66;5174869;27;20050;-53
2022/08/07 08:45:38;;;;;;;2.15;0.80;;;;;;;26.04;100.00;99260.75;5174683;27;20079;-53
2022/08/07 08:48:13;;;;;;;3.97;1.00;;;;;;;27.04;100.00;99266.66;5174708;27;20453;-53
2022/08/07 08:50:44;;;;;;;3.25;0.80;;;;;;;26.62;100.00;99275.84;5174830;27;20636;-51
2022/08/07 08:53:18;;;;;;;2.92;0.85;;;;;;;27.11;100.00;99271.94;5174786;27;20050;-53
2022/08/07 08:55:50;;;;;;;6.15;0.90;;;;;;;25.86;100.00;99265.56;5174388;27;20374;-49
2022/08/07 08:58:25;;;;;;;3.40;1.00;;;;;;;26.74;100.00;99263.63;5174092;27;20058;-50
2022/08/07 09:00:58;;;;;;;3.25;0.93;;;;;;;26.06;100.00;99277.16;5174466;27;20420;-52
2022/08/07 09:03:32;;;;;;;2.88;0.90;;;;;;;26.14;100.00;99241.09;5174163;27;20053;-52
2022/08/07 09:06:04;;;;;;;3.63;0.80;;;;;;;26.24;100.00;99217.34;5174245;27;20046;-51
2022/08/07 09:08:40;;;;;;;6.00;1.00;;;;;;;26.46;100.00;99279.78;5174511;27;20455;-50
2022/08/07 09:11:16;;;;;;;1.88;0.75;;;;;;;26.67;100.00;99294.13;5174339;27;20057;-51
2022/08/07 09:13:56;;;;;;;3.03;1.05;;;;;;;26.77;100.00;99272.41;5173970;27;20042;-51
2022/08/07 09:16:32;;;;;;;2.55;0.88;;;;;;;27.31;100.00;99295.97;5173975;27;20564;-51
2022/08/07 09:19:19;;;;;;;3.65;1.17;;;;;;;26.45;100.00;99289.44;5173975;27;20564;-52
2022/08/07 09:21:53;;;;;;;2.22;0.85;;;;;;;26.75;100.00;99275.66;5173897;27;20458;-51
2022/08/07 09:24:30;;;;;;;2.42;0.70;;;;;;;27.27;100.00;99264.41;5174414;27;20050;-52
2022/08/07 09:27:06;;;;;;;6.63;1.13;;;;;;;26.94;100.00;99305.31;5173824;27;20050;-50
2022/08/07 09:29:41;;;;;;;1.77;0.75;;;;;;;26.43;100.00;99274.31;5173985;27;20050;-52
2022/08/07 09:32:22;;;;;;;2.38;1.00;;;;;;;27.07;100.00;99290.25;5174085;27;20097;-49
2022/08/07 09:34:57;;;;;;;4.63;1.38;;;;;;;27.16;100.00;99282.59;5173979;27;20147;-50
2022/08/07 09:37:33;;;;;;;2.15;1.10;;;;;;;27.61;100.00;99277.97;5174339;27;20046;-52
2022/08/07 09:40:08;;;;;;;2.88;1.20;;;;;;;27.91;100.00;99272.47;5174166;27;20159;-52
2022/08/07 09:42:48;;;;;;;3.47;0.80;;;;;;;27.16;100.00;99248.06;5173721;27;20050;-49
2022/08/07 09:45:21;;;;;;;4.63;0.90;;;;;;;27.11;100.00;99288.81;5173654;27;20053;-49
2022/08/07 09:48:05;;;;;;;2.35;0.90;;;;;;;28.30;100.00;99298.59;5173571;27;20086;-49
2022/08/07 09:50:45;;;;;;;3.25;1.10;;;;;;;28.38;100.00;99299.78;5173595;27;20501;-51
2022/08/07 09:53:13;;;;;;;2.08;0.90;;;;;;;27.66;100.00;99263.22;5173575;27;20513;-52
2022/08/07 09:56:04;;;;;;;1.10;0.70;;;;;;;27.61;100.00;99283.59;5173818;27;20398;-49
2022/08/07 09:59:00;;;;;;;2.35;1.00;;;;;;;28.20;100.00;99271.75;5170845;27;20053;-50
2022/08/07 10:01:40;;;;;;;5.18;1.00;;;;;;;27.20;100.00;99293.69;5173296;27;20053;-50
2022/08/07 10:04:24;;;;;;;3.83;0.85;;;;;;;28.15;100.00;99287.28;5173492;27;20050;-50
2022/08/07 10:06:54;;;;;;;;;;;;;;;28.14;100.00;99282.16;5173812;27;20054;-50
2022/08/07 10:09:44;;;;;;;2.58;0.95;;;;;;;28.34;100.00;99279.47;5172548;27;19922;-52
2022/08/07 10:12:21;;;;;;;5.85;1.20;;;;;;;28.01;100.00;99262.69;5173163;27;20518;-53
2022/08/07 10:15:05;;;;;;;3.80;1.02;;;;;;;27.36;100.00;99253.09;5173334;27;20054;-51
2022/08/07 10:17:51;;;;;;;3.42;1.08;;;;;;;27.36;100.00;99233.41;5173144;27;20046;-51
2022/08/07 10:20:24;;;;;;;2.15;1.15;;;;;;;26.43;100.00;99251.81;5173066;27;20050;-51
2022/08/07 10:23:02;;;;;;;;;;;;;;;26.43;100.00;99255.41;5173687;27;20446;-50
2022/08/07 10:25:38;;;;;;;4.82;1.27;;;;;;;26.36;100.00;99216.41;5172934;27;19930;-52
2022/08/07 10:28:16;;;;;;;3.30;1.15;;;;;;;25.75;100.00;99219.06;5172999;27;20542;-51
2022/08/07 10:30:57;;;;;;;3.00;1.20;;;;;;;26.08;100.00;99209.25;5172831;27;20042;-50
2022/08/07 10:33:44;;;;;;;2.88;1.00;;;;;;;26.33;100.00;99203.28;5172867;27;20077;-50
2022/08/07 10:36:22;;;;;;;3.80;1.00;;;;;;;26.53;100.00;99216.84;5172827;27;20413;-52
2022/08/07 10:38:55;;;;;;;3.78;1.17;;;;;;;26.38;100.00;99219.50;5172985;27;20478;-50
2022/08/07 10:41:28;;;;;;;6.93;1.10;;;;;;;26.13;100.00;99203.78;5172820;27;20050;-50
2022/08/07 10:44:03;;;;;;;2.90;1.02;;;;;;;26.12;100.00;99190.19;5172603;27;20057;-49
2022/08/07 10:46:40;;;;;;;1.75;1.00;;;;;;;26.03;100.00;99185.38;5173185;27;20544;-52
2022/08/07 10:49:14;;;;;;;3.58;1.00;;;;;;;25.74;100.00;99189.44;5172988;27;20046;-52
2022/08/07 10:51:50;;;;;;;1.75;0.85;;;;;;;25.39;100.00;99160.88;5172545;27;20194;-51
2022/08/07 10:54:25;;;;;;;3.05;1.00;;;;;;;24.91;100.00;99190.50;5172990;27;20057;-50
2022/08/07 10:57:02;;;;;;;2.38;0.90;;;;;;;25.25;100.00;99184.69;5172534;27;20505;-50
2022/08/07 10:59:40;;;;;;;4.95;1.20;;;;;;;24.44;100.00;99172.72;5172542;27;20046;-50
2022/08/07 11:02:15;;;;;;;2.70;0.85;;;;;;;24.91;100.00;99159.66;5172559;27;20046;-51
2022/08/07 11:04:58;;;;;;;2.55;1.00;;;;;;;25.64;100.00;99168.22;5172868;27;20589;-51
2022/08/07 11:07:36;;;;;;;2.58;1.02;;;;;;;25.58;100.00;99176.47;5172315;27;20536;-51
2022/08/07 11:10:07;;;;;;;2.45;0.90;;;;;;;25.07;100.00;99187.44;5172481;27;20425;-53
2022/08/07 11:12:39;;;;;;;2.60;0.90;;;;;;;25.20;100.00;99165.69;5172226;27;20509;-50
2022/08/07 11:15:11;;;;;;;3.03;1.20;;;;;;;24.51;100.00;99180.06;5172142;27;20179;-53
2022/08/07 11:17:45;;;;;;;1.95;0.93;;;;;;;23.96;100.00;99152.50;5172312;27;20050;-49
2022/08/07 11:20:18;;;;;;;1.48;0.98;;;;;;;24.02;100.00;99172.25;5172453;27;20056;-48
2022/08/07 11:23:01;;;;;;;1.92;0.95;;;;;;;24.18;100.00;99141.25;5175800;27;20523;-49
2022/08/07 11:25:32;;;;;;;3.40;1.08;;;;;;;24.32;100.00;99118.28;5176148;27;20141;-52
2022/08/07 11:28:06;;;;;;;4.45;0.90;;;;;;;24.16;100.00;99112.94;5175878;27;20046;-50
2022/08/07 11:30:44;;;;;;;2.50;1.13;;;;;;;24.00;100.00;99118.75;5175966;27;20458;-49
2022/08/07 11:33:24;;;;;;;3.60;0.98;;;;;;;23.20;100.00;99145.94;5175640;27;20523;-51
2022/08/07 11:36:11;;;;;;;4.97;0.80;;;;;;;23.13;100.00;99142.59;5175743;27;20145;-50
2022/08/07 11:38:46;;;;;;;2.25;0.70;;;;;;;23.13;100.00;99140.56;5175888;27;20053;-52
2022/08/07 11:41:15;;;;;;;1.15;0.65;;;;;;;23.17;100.00;99104.09;5175655;27;20046;-52
2022/08/07 11:43:48;;;;;;;2.67;0.82;;;;;;;22.70;100.00;99044.16;5176015;27;20137;-50